sensor_id;sensor_type;location;lat;lon;timestamp;pressure;altitude;pressure_sealevel;temperature;humidity
6528;BME280;3297;42.664;23.256;2022-08-01T00:02:05;50467.22;;;-139.84;58.71
6528;BME280;3297;42.664;23.256;2022-08-01T00:04:31;50447.78;;;-139.84;58.72
6528;BME280;3297;42.664;23.256;2022-08-01T00:06:56;50420.56;;;-139.84;58.59
6528;BME280;3297;42.664;23.256;2022-08-01T00:09:22;50420.56;;;-139.84;58.36
6528;BME280;3297;42.664;23.256;2022-08-01T00:11:48;50486.66;;;-139.84;58.54
6528;BME280;3297;42.664;23.256;2022-08-01T00:14:13;50441.94;;;-139.84;58.26
6528;BME280;3297;42.664;23.256;2022-08-01T00:16:39;50447.78;;;-139.84;58.29
6528;BME280;3297;42.664;23.256;2022-08-01T00:19:04;50428.34;;;-139.84;58.68
6528;BME280;3297;42.664;23.256;2022-08-01T00:21:30;50434.19;;;-139.84;58.49
6528;BME280;3297;42.664;23.256;2022-08-01T00:23:56;50453.59;;;-139.84;58.38
6528;BME280;3297;42.664;23.256;2022-08-01T00:26:21;50424.47;;;-139.84;58.44
6528;BME280;3297;42.664;23.256;2022-08-01T00:28:47;50428.34;;;-139.84;58.66
6528;BME280;3297;42.664;23.256;2022-08-01T00:31:12;50428.34;;;-139.84;58.99
6528;BME280;3297;42.664;23.256;2022-08-01T00:33:38;50451.66;;;-139.84;58.73
6528;BME280;3297;42.664;23.256;2022-08-01T00:36:04;50426.41;;;-139.84;58.76
6528;BME280;3297;42.664;23.256;2022-08-01T00:38:29;50455.56;;;-139.84;59.27
6528;BME280;3297;42.664;23.256;2022-08-01T00:40:56;50441.94;;;-139.84;59.41
6528;BME280;3297;42.664;23.256;2022-08-01T00:43:22;50420.56;;;-139.84;59.33
6528;BME280;3297;42.664;23.256;2022-08-01T00:45:47;50445.84;;;-139.84;59.69
6528;BME280;3297;42.664;23.256;2022-08-01T00:48:13;50395.31;;;-139.84;59.38
6528;BME280;3297;42.664;23.256;2022-08-01T00:50:38;50443.91;;;-139.84;59.40
6528;BME280;3297;42.664;23.256;2022-08-01T00:53:04;50455.56;;;-139.84;59.10
6528;BME280;3297;42.664;23.256;2022-08-01T00:55:31;50428.34;;;-139.84;58.98
6528;BME280;3297;42.664;23.256;2022-08-01T00:57:57;50451.66;;;-139.84;58.97
6528;BME280;3297;42.664;23.256;2022-08-01T01:00:23;50428.34;;;-139.84;59.17
6528;BME280;3297;42.664;23.256;2022-08-01T01:02:49;50428.34;;;-139.84;59.14
6528;BME280;3297;42.664;23.256;2022-08-01T01:05:15;50426.41;;;-139.84;59.02
6528;BME280;3297;42.664;23.256;2022-08-01T01:07:55;50393.34;;;-139.84;59.59
6528;BME280;3297;42.664;23.256;2022-08-01T01:13:04;50420.56;;;-139.84;58.89
6528;BME280;3297;42.664;23.256;2022-08-01T01:15:39;50443.91;;;-139.84;58.56
6528;BME280;3297;42.664;23.256;2022-08-01T01:18:13;50451.66;;;-139.84;58.71
6528;BME280;3297;42.664;23.256;2022-08-01T01:20:43;50416.69;;;-139.84;59.32
6528;BME280;3297;42.664;23.256;2022-08-01T01:29:28;50440.00;;;-139.84;59.64
6528;BME280;3297;42.664;23.256;2022-08-01T01:32:14;50408.91;;;-139.84;59.05
6528;BME280;3297;42.664;23.256;2022-08-01T01:34:43;50445.84;;;-139.84;59.29
6528;BME280;3297;42.664;23.256;2022-08-01T01:37:13;50414.75;;;-139.84;58.97
6528;BME280;3297;42.664;23.256;2022-08-01T01:39:41;50420.56;;;-139.84;58.68
6528;BME280;3297;42.664;23.256;2022-08-01T01:42:08;50447.78;;;-139.84;58.35
6528;BME280;3297;42.664;23.256;2022-08-01T01:44:37;50403.06;;;-139.84;58.25
6528;BME280;3297;42.664;23.256;2022-08-01T01:47:04;50443.91;;;-139.84;56.32
6528;BME280;3297;42.664;23.256;2022-08-01T01:49:30;50443.91;;;-139.84;55.27
6528;BME280;3297;42.664;23.256;2022-08-01T01:51:58;50441.94;;;-139.84;55.85
6528;BME280;3297;42.664;23.256;2022-08-01T01:54:28;50410.84;;;-139.84;55.99
6528;BME280;3297;42.664;23.256;2022-08-01T01:56:58;50408.91;;;-139.84;56.50
6528;BME280;3297;42.664;23.256;2022-08-01T01:59:27;50410.84;;;-139.84;56.20
6528;BME280;3297;42.664;23.256;2022-08-01T02:01:57;50432.22;;;-139.84;56.70
6528;BME280;3297;42.664;23.256;2022-08-01T02:04:24;50424.47;;;-139.84;57.73
6528;BME280;3297;42.664;23.256;2022-08-01T02:06:52;50430.28;;;-139.84;56.64
6528;BME280;3297;42.664;23.256;2022-08-01T02:09:20;50451.66;;;-139.84;56.20
6528;BME280;3297;42.664;23.256;2022-08-01T02:11:47;50447.78;;;-139.84;56.14
6528;BME280;3297;42.664;23.256;2022-08-01T02:14:15;50405.03;;;-139.84;56.20
6528;BME280;3297;42.664;23.256;2022-08-01T02:16:44;50418.63;;;-139.84;56.52
6528;BME280;3297;42.664;23.256;2022-08-01T02:19:11;50430.28;;;-139.84;56.40
6528;BME280;3297;42.664;23.256;2022-08-01T02:21:50;50405.03;;;-139.84;56.40
6528;BME280;3297;42.664;23.256;2022-08-01T02:24:24;50422.50;;;-139.84;56.15
6528;BME280;3297;42.664;23.256;2022-08-01T02:26:52;50408.91;;;-139.84;55.88
6528;BME280;3297;42.664;23.256;2022-08-01T02:29:27;50424.47;;;-139.84;55.60
6528;BME280;3297;42.664;23.256;2022-08-01T02:31:56;50428.34;;;-139.84;55.33
6528;BME280;3297;42.664;23.256;2022-08-01T02:34:24;50440.00;;;-139.84;55.67
6528;BME280;3297;42.664;23.256;2022-08-01T02:36:51;50406.97;;;-139.84;55.53
6528;BME280;3297;42.664;23.256;2022-08-01T02:39:19;50403.06;;;-139.84;55.55
6528;BME280;3297;42.664;23.256;2022-08-01T02:41:48;50424.47;;;-139.84;55.55
6528;BME280;3297;42.664;23.256;2022-08-01T02:44:21;50467.22;;;-139.84;55.20
6528;BME280;3297;42.664;23.256;2022-08-01T02:46:59;50428.34;;;-139.84;54.56
6528;BME280;3297;42.664;23.256;2022-08-01T02:49:31;50420.56;;;-139.84;53.90
6528;BME280;3297;42.664;23.256;2022-08-01T02:51:59;50467.22;;;-139.84;53.93
6528;BME280;3297;42.664;23.256;2022-08-01T02:54:27;50455.56;;;-139.84;53.68
6528;BME280;3297;42.664;23.256;2022-08-01T02:56:55;50397.25;;;-139.84;53.27
6528;BME280;3297;42.664;23.256;2022-08-01T02:59:23;50451.66;;;-139.84;53.04
6528;BME280;3297;42.664;23.256;2022-08-01T03:01:54;50434.19;;;-139.84;52.85
6528;BME280;3297;42.664;23.256;2022-08-01T03:04:22;50432.22;;;-139.84;52.70
6528;BME280;3297;42.664;23.256;2022-08-01T03:06:48;50405.03;;;-139.84;52.10
6528;BME280;3297;42.664;23.256;2022-08-01T03:09:15;50405.03;;;-139.84;51.94
6528;BME280;3297;42.664;23.256;2022-08-01T03:11:43;50395.31;;;-139.84;52.14
6528;BME280;3297;42.664;23.256;2022-08-01T03:14:10;50436.13;;;-139.84;52.22
6528;BME280;3297;42.664;23.256;2022-08-01T03:16:38;50428.34;;;-139.84;52.44
6528;BME280;3297;42.664;23.256;2022-08-01T03:19:07;50430.28;;;-139.84;52.24
6528;BME280;3297;42.664;23.256;2022-08-01T03:21:34;50410.84;;;-139.84;52.41
6528;BME280;3297;42.664;23.256;2022-08-01T03:24:01;50438.06;;;-139.84;52.78
6528;BME280;3297;42.664;23.256;2022-08-01T03:26:29;50412.78;;;-139.84;52.56
6528;BME280;3297;42.664;23.256;2022-08-01T03:28:59;50397.25;;;-139.84;52.78
6528;BME280;3297;42.664;23.256;2022-08-01T03:31:27;50436.13;;;-139.84;52.58
6528;BME280;3297;42.664;23.256;2022-08-01T03:33:53;50405.03;;;-139.84;52.34
6528;BME280;3297;42.664;23.256;2022-08-01T03:36:24;50451.66;;;-139.84;52.50
6528;BME280;3297;42.664;23.256;2022-08-01T03:38:56;50432.22;;;-139.84;52.72
6528;BME280;3297;42.664;23.256;2022-08-01T03:41:24;50441.94;;;-139.84;52.70
6528;BME280;3297;42.664;23.256;2022-08-01T03:43:59;50447.78;;;-139.84;53.27
6528;BME280;3297;42.664;23.256;2022-08-01T03:46:36;50428.34;;;-139.84;53.28
6528;BME280;3297;42.664;23.256;2022-08-01T03:49:07;50399.19;;;-139.84;53.19
6528;BME280;3297;42.664;23.256;2022-08-01T03:51:37;50440.00;;;-139.84;53.23
6528;BME280;3297;42.664;23.256;2022-08-01T03:54:04;50405.03;;;-139.84;53.33
6528;BME280;3297;42.664;23.256;2022-08-01T03:56:30;50414.75;;;-139.84;53.43
6528;BME280;3297;42.664;23.256;2022-08-01T03:58:59;50428.34;;;-139.84;52.94
6528;BME280;3297;42.664;23.256;2022-08-01T04:01:25;50434.19;;;-139.84;52.78
6528;BME280;3297;42.664;23.256;2022-08-01T04:03:52;50416.69;;;-139.84;53.21
6528;BME280;3297;42.664;23.256;2022-08-01T04:06:18;50440.00;;;-139.84;52.97
6528;BME280;3297;42.664;23.256;2022-08-01T04:08:43;50430.28;;;-139.84;53.32
6528;BME280;3297;42.664;23.256;2022-08-01T04:11:21;50416.69;;;-139.84;53.26
6528;BME280;3297;42.664;23.256;2022-08-01T04:13:47;50395.31;;;-139.84;53.39
6528;BME280;3297;42.664;23.256;2022-08-01T04:16:13;50436.13;;;-139.84;52.62
6528;BME280;3297;42.664;23.256;2022-08-01T04:18:39;50414.75;;;-139.84;52.15
6528;BME280;3297;42.664;23.256;2022-08-01T04:21:05;50443.91;;;-139.84;52.14
6528;BME280;3297;42.664;23.256;2022-08-01T04:23:30;50422.50;;;-139.84;52.65
6528;BME280;3297;42.664;23.256;2022-08-01T04:25:59;50401.13;;;-139.84;52.34
6528;BME280;3297;42.664;23.256;2022-08-01T04:28:28;50443.91;;;-139.84;52.22
6528;BME280;3297;42.664;23.256;2022-08-01T04:30:55;50471.09;;;-139.84;52.42
6528;BME280;3297;42.664;23.256;2022-08-01T04:33:22;50434.19;;;-139.84;52.23
6528;BME280;3297;42.664;23.256;2022-08-01T04:35:50;50434.19;;;-139.84;52.09
6528;BME280;3297;42.664;23.256;2022-08-01T04:38:20;50449.72;;;-139.84;52.20
6528;BME280;3297;42.664;23.256;2022-08-01T04:40:47;50428.34;;;-139.84;51.65
6528;BME280;3297;42.664;23.256;2022-08-01T04:43:14;50440.00;;;-139.84;51.73
6528;BME280;3297;42.664;23.256;2022-08-01T04:45:40;50463.34;;;-139.84;51.43
6528;BME280;3297;42.664;23.256;2022-08-01T04:48:09;50459.44;;;-139.84;51.16
6528;BME280;3297;42.664;23.256;2022-08-01T04:50:36;50465.28;;;-139.84;51.02
6528;BME280;3297;42.664;23.256;2022-08-01T04:53:02;50441.94;;;-139.84;51.55
6528;BME280;3297;42.664;23.256;2022-08-01T04:55:28;50440.00;;;-139.84;51.29
6528;BME280;3297;42.664;23.256;2022-08-01T04:57:54;50440.00;;;-139.84;50.75
6528;BME280;3297;42.664;23.256;2022-08-01T05:00:19;50434.19;;;-139.84;49.74
6528;BME280;3297;42.664;23.256;2022-08-01T05:02:45;50440.00;;;-139.84;49.58
6528;BME280;3297;42.664;23.256;2022-08-01T05:05:11;50465.28;;;-139.84;48.97
6528;BME280;3297;42.664;23.256;2022-08-01T05:07:37;50490.53;;;-139.84;48.33
6528;BME280;3297;42.664;23.256;2022-08-01T05:10:06;50449.72;;;-139.84;48.58
6528;BME280;3297;42.664;23.256;2022-08-01T05:12:31;50476.94;;;-139.84;47.98
6528;BME280;3297;42.664;23.256;2022-08-01T05:15:00;50447.78;;;-139.84;48.62
6528;BME280;3297;42.664;23.256;2022-08-01T05:17:25;50451.66;;;-139.84;48.22
6528;BME280;3297;42.664;23.256;2022-08-01T05:19:51;50463.34;;;-139.84;48.25
6528;BME280;3297;42.664;23.256;2022-08-01T05:22:17;50482.78;;;-139.84;47.67
6528;BME280;3297;42.664;23.256;2022-08-01T05:24:42;50496.38;;;-139.84;47.95
6528;BME280;3297;42.664;23.256;2022-08-01T05:27:08;50451.66;;;-139.84;45.92
6528;BME280;3297;42.664;23.256;2022-08-01T05:29:34;50463.34;;;-139.84;46.54
6528;BME280;3297;42.664;23.256;2022-08-01T05:32:01;50455.56;;;-139.84;45.83
6528;BME280;3297;42.664;23.256;2022-08-01T05:34:27;50471.09;;;-139.84;45.34
6528;BME280;3297;42.664;23.256;2022-08-01T05:36:53;50502.19;;;-139.84;45.12
6528;BME280;3297;42.664;23.256;2022-08-01T05:39:18;50508.03;;;-139.84;45.56
6528;BME280;3297;42.664;23.256;2022-08-01T05:41:44;50502.19;;;-139.84;45.31
6528;BME280;3297;42.664;23.256;2022-08-01T05:44:10;50467.22;;;-139.84;45.02
6528;BME280;3297;42.664;23.256;2022-08-01T05:46:36;50482.78;;;-139.84;44.87
6528;BME280;3297;42.664;23.256;2022-08-01T05:49:03;50498.31;;;-139.84;45.01
6528;BME280;3297;42.664;23.256;2022-08-01T05:51:30;50459.44;;;-139.84;45.30
6528;BME280;3297;42.664;23.256;2022-08-01T05:53:56;50455.56;;;-139.84;44.46
6528;BME280;3297;42.664;23.256;2022-08-01T05:56:22;50521.63;;;-139.84;43.66
6528;BME280;3297;42.664;23.256;2022-08-01T05:58:49;50513.88;;;-139.84;43.86
6528;BME280;3297;42.664;23.256;2022-08-01T06:01:15;50490.53;;;-139.84;42.71
6528;BME280;3297;42.664;23.256;2022-08-01T06:03:41;50546.91;;;-139.84;42.05
6528;BME280;3297;42.664;23.256;2022-08-01T06:06:07;50529.41;;;-139.84;41.58
6528;BME280;3297;42.664;23.256;2022-08-01T06:08:32;50508.03;;;-139.84;41.12
6528;BME280;3297;42.664;23.256;2022-08-01T06:10:58;50529.41;;;-139.84;40.24
6528;BME280;3297;42.664;23.256;2022-08-01T06:13:24;50502.19;;;-139.84;39.90
6528;BME280;3297;42.664;23.256;2022-08-01T06:15:50;50509.97;;;-139.84;39.03
6528;BME280;3297;42.664;23.256;2022-08-01T06:18:16;50529.41;;;-139.84;37.77
6528;BME280;3297;42.664;23.256;2022-08-01T06:20:42;50541.06;;;-139.84;37.88
6528;BME280;3297;42.664;23.256;2022-08-01T06:23:08;50548.84;;;-139.84;37.27
6528;BME280;3297;42.664;23.256;2022-08-01T06:25:33;50517.75;;;-139.84;36.67
6528;BME280;3297;42.664;23.256;2022-08-01T06:27:59;50533.31;;;-139.84;36.95
6528;BME280;3297;42.664;23.256;2022-08-01T06:30:25;50572.19;;;-139.84;35.88
6528;BME280;3297;42.664;23.256;2022-08-01T06:32:51;50568.28;;;-139.84;35.27
6528;BME280;3297;42.664;23.256;2022-08-01T06:35:16;50544.97;;;-139.84;34.64
6528;BME280;3297;42.664;23.256;2022-08-01T06:37:42;50556.63;;;-139.84;34.50
6528;BME280;3297;42.664;23.256;2022-08-01T06:40:11;50521.63;;;-139.84;33.45
6528;BME280;3297;42.664;23.256;2022-08-01T06:42:37;50579.94;;;-139.84;33.35
6528;BME280;3297;42.664;23.256;2022-08-01T06:45:10;50541.06;;;-139.84;33.12
6528;BME280;3297;42.664;23.256;2022-08-01T06:47:40;50521.63;;;-139.84;33.28
6528;BME280;3297;42.664;23.256;2022-08-01T06:50:07;50548.84;;;-139.84;32.72
6528;BME280;3297;42.664;23.256;2022-08-01T06:52:34;50509.97;;;-139.84;33.33
6528;BME280;3297;42.664;23.256;2022-08-01T06:55:00;50564.41;;;-139.84;33.72
6528;BME280;3297;42.664;23.256;2022-08-01T06:57:25;50552.75;;;-139.84;33.29
6528;BME280;3297;42.664;23.256;2022-08-01T06:59:51;50556.63;;;-139.84;32.86
6528;BME280;3297;42.664;23.256;2022-08-01T07:02:17;50533.31;;;-139.84;32.89
6528;BME280;3297;42.664;23.256;2022-08-01T07:04:43;50529.41;;;-139.84;32.81
6528;BME280;3297;42.664;23.256;2022-08-01T07:07:08;50560.50;;;-139.84;32.15
6528;BME280;3297;42.664;23.256;2022-08-01T07:09:34;50511.91;;;-139.84;31.80
6528;BME280;3297;42.664;23.256;2022-08-01T07:11:59;50552.75;;;-139.84;31.80
6528;BME280;3297;42.664;23.256;2022-08-01T07:14:25;50556.63;;;-139.84;32.08
6528;BME280;3297;42.664;23.256;2022-08-01T07:16:51;50576.06;;;-139.84;32.24
6528;BME280;3297;42.664;23.256;2022-08-01T07:19:17;50566.34;;;-139.84;31.73
6528;BME280;3297;42.664;23.256;2022-08-01T07:21:43;50548.84;;;-139.84;31.20
6528;BME280;3297;42.664;23.256;2022-08-01T07:24:11;50603.28;;;-139.84;31.10
6528;BME280;3297;42.664;23.256;2022-08-01T07:26:38;50548.84;;;-139.84;30.30
6528;BME280;3297;42.664;23.256;2022-08-01T07:29:04;50556.63;;;-139.84;30.61
6528;BME280;3297;42.664;23.256;2022-08-01T07:31:29;50527.47;;;-139.84;30.15
6528;BME280;3297;42.664;23.256;2022-08-01T07:33:55;50568.28;;;-139.84;30.20
6528;BME280;3297;42.664;23.256;2022-08-01T07:36:21;50605.22;;;-139.84;30.14
6528;BME280;3297;42.664;23.256;2022-08-01T07:38:47;50548.84;;;-139.84;30.21
6528;BME280;3297;42.664;23.256;2022-08-01T07:41:13;50576.06;;;-139.84;29.54
6528;BME280;3297;42.664;23.256;2022-08-01T07:43:39;50556.63;;;-139.84;29.00
6528;BME280;3297;42.664;23.256;2022-08-01T07:46:05;50558.56;;;-139.84;28.85
6528;BME280;3297;42.664;23.256;2022-08-01T07:48:31;50558.56;;;-139.84;28.66
6528;BME280;3297;42.664;23.256;2022-08-01T07:50:57;50560.50;;;-139.84;28.34
6528;BME280;3297;42.664;23.256;2022-08-01T07:53:22;50570.22;;;-139.84;28.52
6528;BME280;3297;42.664;23.256;2022-08-01T07:55:48;50552.75;;;-139.84;29.08
6528;BME280;3297;42.664;23.256;2022-08-01T07:58:15;50579.94;;;-139.84;29.76
6528;BME280;3297;42.664;23.256;2022-08-01T08:00:41;50552.75;;;-139.84;30.11
6528;BME280;3297;42.664;23.256;2022-08-01T08:03:06;50521.63;;;-139.84;30.20
6528;BME280;3297;42.664;23.256;2022-08-01T08:05:32;50665.47;;;-139.84;30.11
6528;BME280;3297;42.664;23.256;2022-08-01T08:08:07;50554.69;;;-139.84;30.98
6528;BME280;3297;42.664;23.256;2022-08-01T08:10:34;50552.75;;;-139.84;30.24
6528;BME280;3297;42.664;23.256;2022-08-01T08:13:00;50517.75;;;-139.84;30.17
6528;BME280;3297;42.664;23.256;2022-08-01T08:15:29;50546.91;;;-139.84;31.21
6528;BME280;3297;42.664;23.256;2022-08-01T08:17:54;50554.69;;;-139.84;30.81
6528;BME280;3297;42.664;23.256;2022-08-01T08:20:20;50560.50;;;-139.84;30.90
6528;BME280;3297;42.664;23.256;2022-08-01T08:22:53;50517.75;;;-139.84;30.59
6528;BME280;3297;42.664;23.256;2022-08-01T08:25:18;50506.09;;;-139.84;30.16
6528;BME280;3297;42.664;23.256;2022-08-01T08:27:50;50537.19;;;-139.84;29.81
6528;BME280;3297;42.664;23.256;2022-08-01T08:30:16;50541.06;;;-139.84;29.49
6528;BME280;3297;42.664;23.256;2022-08-01T08:32:42;50556.63;;;-139.84;29.18
6528;BME280;3297;42.664;23.256;2022-08-01T08:35:08;50554.69;;;-139.84;29.22
6528;BME280;3297;42.664;23.256;2022-08-01T08:37:35;50548.84;;;-139.84;29.02
6528;BME280;3297;42.664;23.256;2022-08-01T08:40:01;50521.63;;;-139.84;28.56
6528;BME280;3297;42.664;23.256;2022-08-01T08:42:26;50544.97;;;-139.84;28.61
6528;BME280;3297;42.664;23.256;2022-08-01T08:44:52;50541.06;;;-139.84;28.71
6528;BME280;3297;42.664;23.256;2022-08-01T08:47:21;50550.78;;;-139.84;28.64
6528;BME280;3297;42.664;23.256;2022-08-01T08:49:51;50539.13;;;-139.84;27.99
6528;BME280;3297;42.664;23.256;2022-08-01T08:52:22;50556.63;;;-139.84;27.56
6528;BME280;3297;42.664;23.256;2022-08-01T08:54:49;50562.47;;;-139.84;27.62
6528;BME280;3297;42.664;23.256;2022-08-01T08:57:15;50544.97;;;-139.84;27.58
6528;BME280;3297;42.664;23.256;2022-08-01T08:59:44;50533.31;;;-139.84;27.09
6528;BME280;3297;42.664;23.256;2022-08-01T09:02:10;50513.88;;;-139.84;27.09
6528;BME280;3297;42.664;23.256;2022-08-01T09:04:36;50529.41;;;-139.84;27.01
6528;BME280;3297;42.664;23.256;2022-08-01T09:07:04;50517.75;;;-139.84;26.99
6528;BME280;3297;42.664;23.256;2022-08-01T09:09:30;50533.31;;;-139.84;27.21
6528;BME280;3297;42.664;23.256;2022-08-01T09:11:56;50527.47;;;-139.84;26.95
6528;BME280;3297;42.664;23.256;2022-08-01T09:14:24;50556.63;;;-139.84;26.87
6528;BME280;3297;42.664;23.256;2022-08-01T09:17:06;50541.06;;;-139.84;26.65
6528;BME280;3297;42.664;23.256;2022-08-01T09:19:38;50539.13;;;-139.84;26.95
6528;BME280;3297;42.664;23.256;2022-08-01T09:22:07;50541.06;;;-139.84;27.56
6528;BME280;3297;42.664;23.256;2022-08-01T09:24:33;50511.91;;;-139.84;27.60
6528;BME280;3297;42.664;23.256;2022-08-01T09:26:59;50509.97;;;-139.84;27.90
6528;BME280;3297;42.664;23.256;2022-08-01T09:29:28;50543.03;;;-139.84;28.01
6528;BME280;3297;42.664;23.256;2022-08-01T09:31:55;50541.06;;;-139.84;27.50
6528;BME280;3297;42.664;23.256;2022-08-01T09:34:30;50529.41;;;-139.84;27.80
6528;BME280;3297;42.664;23.256;2022-08-01T09:37:00;50509.97;;;-139.84;27.28
6528;BME280;3297;42.664;23.256;2022-08-01T09:39:31;50521.63;;;-139.84;27.83
6528;BME280;3297;42.664;23.256;2022-08-01T09:42:00;50525.53;;;-139.84;27.69
6528;BME280;3297;42.664;23.256;2022-08-01T09:44:45;50523.59;;;-139.84;27.45
6528;BME280;3297;42.664;23.256;2022-08-01T09:47:12;50509.97;;;-139.84;28.05
6528;BME280;3297;42.664;23.256;2022-08-01T09:49:40;50525.53;;;-139.84;28.56
6528;BME280;3297;42.664;23.256;2022-08-01T09:52:19;50502.19;;;-139.84;28.20
6528;BME280;3297;42.664;23.256;2022-08-01T09:55:05;50467.22;;;-139.84;28.08
6528;BME280;3297;42.664;23.256;2022-08-01T09:57:31;50517.75;;;-139.84;27.78
6528;BME280;3297;42.664;23.256;2022-08-01T09:59:59;50509.97;;;-139.84;27.61
6528;BME280;3297;42.664;23.256;2022-08-01T10:02:37;50541.06;;;-139.84;27.21
6528;BME280;3297;42.664;23.256;2022-08-01T10:05:04;50506.09;;;-139.84;27.23
6528;BME280;3297;42.664;23.256;2022-08-01T10:07:31;50492.47;;;-139.84;27.21
6528;BME280;3297;42.664;23.256;2022-08-01T10:10:09;50527.47;;;-139.84;27.34
6528;BME280;3297;42.664;23.256;2022-08-01T10:12:36;50502.19;;;-139.84;27.42
6528;BME280;3297;42.664;23.256;2022-08-01T10:15:03;50500.25;;;-139.84;27.27
6528;BME280;3297;42.664;23.256;2022-08-01T10:17:30;50517.75;;;-139.84;27.70
6528;BME280;3297;42.664;23.256;2022-08-01T10:19:56;50502.19;;;-139.84;27.61
6528;BME280;3297;42.664;23.256;2022-08-01T10:22:24;50515.81;;;-139.84;26.96
6528;BME280;3297;42.664;23.256;2022-08-01T10:24:53;50502.19;;;-139.84;26.84
6528;BME280;3297;42.664;23.256;2022-08-01T10:27:20;50498.31;;;-139.84;27.27
6528;BME280;3297;42.664;23.256;2022-08-01T10:29:50;50513.88;;;-139.84;27.07
6528;BME280;3297;42.664;23.256;2022-08-01T10:32:17;50517.75;;;-139.84;26.90
6528;BME280;3297;42.664;23.256;2022-08-01T10:34:43;50548.84;;;-139.84;26.57
6528;BME280;3297;42.664;23.256;2022-08-01T10:37:10;50517.75;;;-139.84;26.55
6528;BME280;3297;42.664;23.256;2022-08-01T10:39:36;50525.53;;;-139.84;26.71
6528;BME280;3297;42.664;23.256;2022-08-01T10:42:04;50475.00;;;-139.84;26.97
6528;BME280;3297;42.664;23.256;2022-08-01T10:44:31;50498.31;;;-139.84;27.07
6528;BME280;3297;42.664;23.256;2022-08-01T10:47:04;50513.88;;;-139.84;26.68
6528;BME280;3297;42.664;23.256;2022-08-01T10:49:34;50459.44;;;-139.84;26.68
6528;BME280;3297;42.664;23.256;2022-08-01T10:52:01;50517.75;;;-139.84;27.36
6528;BME280;3297;42.664;23.256;2022-08-01T10:54:27;50498.31;;;-139.84;27.45
6528;BME280;3297;42.664;23.256;2022-08-01T10:56:53;50513.88;;;-139.84;27.19
6528;BME280;3297;42.664;23.256;2022-08-01T10:59:25;50502.19;;;-139.84;27.48
6528;BME280;3297;42.664;23.256;2022-08-01T11:02:02;50508.03;;;-139.84;27.88
6528;BME280;3297;42.664;23.256;2022-08-01T11:07:04;50506.09;;;-139.84;27.75
6528;BME280;3297;42.664;23.256;2022-08-01T11:09:37;50509.97;;;-139.84;27.48
6528;BME280;3297;42.664;23.256;2022-08-01T11:14:34;50482.78;;;-139.84;28.15
6528;BME280;3297;42.664;23.256;2022-08-01T11:22:30;50628.53;;;-139.84;28.20
6528;BME280;3297;42.664;23.256;2022-08-01T11:24:56;50498.31;;;-139.84;28.60
6528;BME280;3297;42.664;23.256;2022-08-01T11:32:49;50461.38;;;-139.84;29.15
6528;BME280;3297;42.664;23.256;2022-08-01T11:35:16;50508.03;;;-139.84;29.18
6528;BME280;3297;42.664;23.256;2022-08-01T11:37:43;50475.00;;;-139.84;29.39
6528;BME280;3297;42.664;23.256;2022-08-01T11:40:21;50432.22;;;-139.84;29.32
6528;BME280;3297;42.664;23.256;2022-08-01T11:48:24;50482.78;;;-139.84;29.89
6528;BME280;3297;42.664;23.256;2022-08-01T11:50:51;50453.59;;;-139.84;29.98
6528;BME280;3297;42.664;23.256;2022-08-01T11:53:18;50461.38;;;-139.84;29.83
6528;BME280;3297;42.664;23.256;2022-08-01T11:55:51;50494.44;;;-139.84;30.10
6528;BME280;3297;42.664;23.256;2022-08-01T11:58:22;50508.03;;;-139.84;30.10
6528;BME280;3297;42.664;23.256;2022-08-01T12:00:52;50471.09;;;-139.84;30.55
6528;BME280;3297;42.664;23.256;2022-08-01T12:03:25;50475.00;;;-139.84;30.48
6528;BME280;3297;42.664;23.256;2022-08-01T12:05:53;50451.66;;;-139.84;30.58
6528;BME280;3297;42.664;23.256;2022-08-01T12:08:26;50463.34;;;-139.84;30.54
6528;BME280;3297;42.664;23.256;2022-08-01T12:10:52;50486.66;;;-139.84;30.43
6528;BME280;3297;42.664;23.256;2022-08-01T12:13:18;50478.88;;;-139.84;30.28
6528;BME280;3297;42.664;23.256;2022-08-01T12:15:44;50469.16;;;-139.84;30.63
6528;BME280;3297;42.664;23.256;2022-08-01T12:18:11;50451.66;;;-139.84;30.77
6528;BME280;3297;42.664;23.256;2022-08-01T12:20:41;50459.44;;;-139.84;31.17
6528;BME280;3297;42.664;23.256;2022-08-01T12:23:10;50482.78;;;-139.84;30.59
6528;BME280;3297;42.664;23.256;2022-08-01T12:25:37;50463.34;;;-139.84;30.71
6528;BME280;3297;42.664;23.256;2022-08-01T12:28:06;50459.44;;;-139.84;30.51
6528;BME280;3297;42.664;23.256;2022-08-01T12:30:33;50440.00;;;-139.84;30.41
6528;BME280;3297;42.664;23.256;2022-08-01T12:33:04;50506.09;;;-139.84;30.47
6528;BME280;3297;42.664;23.256;2022-08-01T12:35:31;50486.66;;;-139.84;30.50
6528;BME280;3297;42.664;23.256;2022-08-01T12:38:03;50467.22;;;-139.84;30.69
6528;BME280;3297;42.664;23.256;2022-08-01T12:40:34;50490.53;;;-139.84;30.46
6528;BME280;3297;42.664;23.256;2022-08-01T12:43:03;50492.47;;;-139.84;30.20
6528;BME280;3297;42.664;23.256;2022-08-01T12:45:33;50482.78;;;-139.84;30.32
6528;BME280;3297;42.664;23.256;2022-08-01T12:48:00;50478.88;;;-139.84;30.20
6528;BME280;3297;42.664;23.256;2022-08-01T12:50:30;50420.56;;;-139.84;30.31
6528;BME280;3297;42.664;23.256;2022-08-01T12:52:57;50465.28;;;-139.84;30.17
6528;BME280;3297;42.664;23.256;2022-08-01T12:55:25;50463.34;;;-139.84;29.87
6528;BME280;3297;42.664;23.256;2022-08-01T12:58:11;50463.34;;;-139.84;29.84
6528;BME280;3297;42.664;23.256;2022-08-01T13:00:39;50449.72;;;-139.84;30.38
6528;BME280;3297;42.664;23.256;2022-08-01T13:03:15;50451.66;;;-139.84;29.98
6528;BME280;3297;42.664;23.256;2022-08-01T13:08:15;50482.78;;;-139.84;30.00
6528;BME280;3297;42.664;23.256;2022-08-01T13:10:41;50440.00;;;-139.84;30.06
6528;BME280;3297;42.664;23.256;2022-08-01T13:13:08;50453.59;;;-139.84;30.03
6528;BME280;3297;42.664;23.256;2022-08-01T13:15:37;50465.28;;;-139.84;30.17
6528;BME280;3297;42.664;23.256;2022-08-01T13:18:30;50478.88;;;-139.84;30.20
6528;BME280;3297;42.664;23.256;2022-08-01T13:21:12;50463.34;;;-139.84;29.73
6528;BME280;3297;42.664;23.256;2022-08-01T13:23:39;50416.69;;;-139.84;30.00
6528;BME280;3297;42.664;23.256;2022-08-01T13:26:05;50441.94;;;-139.84;30.61
6528;BME280;3297;42.664;23.256;2022-08-01T13:28:31;50436.13;;;-139.84;30.31